createdAt,value
2018-05-09T00:02:20.634Z,6.60
2018-05-09T00:04:48.754Z,4.67
2018-05-09T00:07:16.884Z,8.50
2018-05-09T00:09:44.993Z,3.70
2018-05-09T00:12:13.135Z,5.10
2018-05-09T00:14:41.265Z,6.37
2018-05-09T00:17:09.377Z,5.33
2018-05-09T00:19:37.474Z,6.33
2018-05-09T00:22:05.627Z,4.40
2018-05-09T00:24:33.755Z,5.73
2018-05-09T00:27:01.889Z,5.03
2018-05-09T00:29:30.014Z,8.10
2018-05-09T00:31:58.112Z,7.93
2018-05-09T00:34:26.247Z,5.77
2018-05-09T00:36:54.373Z,5.90
2018-05-09T00:39:22.511Z,4.20
2018-05-09T00:41:50.745Z,4.53
2018-05-09T00:44:18.800Z,6.80
2018-05-09T00:46:46.910Z,5.93
2018-05-09T00:49:15.224Z,4.50
2018-05-09T00:51:43.337Z,5.70
2018-05-09T00:54:23.347Z,4.97
2018-05-09T00:56:51.458Z,5.20
2018-05-09T00:59:20.089Z,6.87
2018-05-09T01:01:48.190Z,6.87
2018-05-09T01:04:16.314Z,5.83
2018-05-09T01:06:44.438Z,5.10
2018-05-09T01:09:12.531Z,4.23
2018-05-09T01:11:41.248Z,3.73
2018-05-09T01:14:09.361Z,6.23
2018-05-09T01:16:37.569Z,3.80
2018-05-09T01:19:05.792Z,8.37
2018-05-09T01:21:33.945Z,5.97
2018-05-09T01:24:02.053Z,5.33
2018-05-09T01:26:30.188Z,6.63
2018-05-09T01:28:58.297Z,6.70
2018-05-09T01:31:26.446Z,6.47
2018-05-09T01:33:54.601Z,4.87
2018-05-09T01:36:22.705Z,6.03
2018-05-09T01:38:50.911Z,6.30
2018-05-09T01:41:19.090Z,6.67
2018-05-09T01:43:50.859Z,6.03
2018-05-09T01:46:18.978Z,4.47
2018-05-09T01:48:47.074Z,7.17
2018-05-09T01:51:15.196Z,3.80
2018-05-09T01:53:43.321Z,5.87
2018-05-09T01:56:11.456Z,5.77
2018-05-09T01:58:39.594Z,5.47
2018-05-09T02:01:07.697Z,6.40
2018-05-09T02:03:35.858Z,4.53
2018-05-09T02:06:04.064Z,7.43
2018-05-09T02:08:32.127Z,6.63
2018-05-09T02:11:00.252Z,7.50
2018-05-09T02:13:28.388Z,4.70
2018-05-09T02:15:56.549Z,7.87
2018-05-09T02:18:24.672Z,7.83
2018-05-09T02:20:52.803Z,6.13
2018-05-09T02:23:21.134Z,6.07
2018-05-09T02:25:52.984Z,9.40
2018-05-09T02:28:21.096Z,6.47
2018-05-09T02:30:49.225Z,7.70
2018-05-09T02:33:17.323Z,8.53
2018-05-09T02:35:47.352Z,5.33
2018-05-09T02:38:15.489Z,8.60
2018-05-09T02:40:43.608Z,6.67
2018-05-09T02:43:11.721Z,10.53
2018-05-09T02:45:39.846Z,5.23
2018-05-09T02:48:07.977Z,6.87
2018-05-09T02:50:36.097Z,6.13
2018-05-09T02:53:04.232Z,5.67
2018-05-09T02:55:32.480Z,8.33
2018-05-09T02:58:00.597Z,7.10
2018-05-09T03:00:28.744Z,5.40
2018-05-09T03:02:56.852Z,6.37
2018-05-09T03:05:24.974Z,5.20
2018-05-09T03:07:53.116Z,5.63
2018-05-09T03:10:21.226Z,6.43
2018-05-09T03:12:49.351Z,8.63
2018-05-09T03:15:17.474Z,6.43
2018-05-09T03:17:45.625Z,7.70
2018-05-09T03:20:13.768Z,6.87
2018-05-09T03:22:41.877Z,5.80
2018-05-09T03:25:10.002Z,7.57
2018-05-09T03:27:41.198Z,6.57
2018-05-09T03:30:09.840Z,6.70
2018-05-09T03:32:38.000Z,6.10
2018-05-09T03:35:06.117Z,8.47
2018-05-09T03:37:34.298Z,8.80
2018-05-09T03:40:02.405Z,6.90
2018-05-09T03:42:30.513Z,8.00
2018-05-09T03:44:58.633Z,10.63
2018-05-09T03:47:26.765Z,8.60
2018-05-09T03:49:54.888Z,7.40
2018-05-09T03:52:23.013Z,10.13
2018-05-09T03:54:51.172Z,11.23
2018-05-09T03:57:19.296Z,7.67
2018-05-09T03:59:47.436Z,5.20
2018-05-09T04:02:27.391Z,10.13
2018-05-09T04:05:07.285Z,9.17
2018-05-09T04:07:47.196Z,8.33
2018-05-09T04:10:15.299Z,10.37
2018-05-09T04:12:43.412Z,8.33
2018-05-09T04:15:11.569Z,11.17
2018-05-09T04:17:39.719Z,11.13
2018-05-09T04:20:07.817Z,8.93
2018-05-09T04:22:35.972Z,8.30
2018-05-09T04:25:04.123Z,9.13
2018-05-09T04:27:32.245Z,11.60
2018-05-09T04:30:04.232Z,12.27
2018-05-09T04:32:32.565Z,8.27
2018-05-09T04:35:00.680Z,9.70
2018-05-09T04:37:28.816Z,9.93
2018-05-09T04:39:56.910Z,8.53
2018-05-09T04:42:25.045Z,7.17
2018-05-09T04:44:53.186Z,9.10
2018-05-09T04:47:21.287Z,8.27
2018-05-09T04:49:49.428Z,9.70
2018-05-09T04:52:17.537Z,7.67
2018-05-09T04:54:45.651Z,10.20
2018-05-09T04:57:13.767Z,7.37
2018-05-09T04:59:41.907Z,9.10
2018-05-09T05:02:10.032Z,12.37
2018-05-09T05:04:38.190Z,11.83
2018-05-09T05:07:06.281Z,8.67
2018-05-09T05:09:34.430Z,9.63
2018-05-09T05:12:02.755Z,10.17
2018-05-09T05:14:30.895Z,8.27
2018-05-09T05:16:59.022Z,11.57
2018-05-09T05:19:27.535Z,9.20
2018-05-09T05:21:55.676Z,10.70
2018-05-09T05:24:23.824Z,11.67
2018-05-09T05:26:51.970Z,10.10
2018-05-09T05:29:20.348Z,8.80
2018-05-09T05:31:48.494Z,11.93
2018-05-09T05:34:16.617Z,9.00
2018-05-09T05:36:44.757Z,13.37
2018-05-09T05:39:12.859Z,7.27
2018-05-09T05:41:41.085Z,18.50
2018-05-09T05:44:09.201Z,12.03
2018-05-09T05:46:37.328Z,11.57
2018-05-09T05:49:05.465Z,11.57
2018-05-09T05:51:33.593Z,11.00
2018-05-09T05:54:01.712Z,13.07
2018-05-09T05:56:36.031Z,7.20
2018-05-09T05:59:04.157Z,8.50
2018-05-09T06:01:32.300Z,7.17
2018-05-09T06:04:00.408Z,8.67
2018-05-09T06:06:28.599Z,9.13
2018-05-09T06:08:56.673Z,12.70
2018-05-09T06:11:24.796Z,7.97
2018-05-09T06:13:52.913Z,8.80
2018-05-09T06:16:21.047Z,6.93
2018-05-09T06:18:49.184Z,8.60
2018-05-09T06:21:17.302Z,11.57
2018-05-09T06:23:45.443Z,10.07
2018-05-09T06:26:13.580Z,7.93
2018-05-09T06:28:41.697Z,7.50
2018-05-09T06:31:09.817Z,12.70
2018-05-09T06:33:37.945Z,7.93
2018-05-09T06:36:06.126Z,10.67
2018-05-09T06:38:34.338Z,8.47
2018-05-09T06:41:02.549Z,9.03
2018-05-09T06:43:30.739Z,8.03
2018-05-09T06:45:58.865Z,12.40
2018-05-09T06:48:26.988Z,11.30
2018-05-09T06:50:55.090Z,8.27
2018-05-09T06:53:23.246Z,12.57
2018-05-09T06:55:51.362Z,11.67
2018-05-09T06:58:19.482Z,8.23
2018-05-09T07:00:47.597Z,10.40
2018-05-09T07:03:15.706Z,9.00
2018-05-09T07:05:43.848Z,9.37
2018-05-09T07:08:11.966Z,11.00
2018-05-09T07:10:40.098Z,14.30
2018-05-09T07:13:08.226Z,11.13
2018-05-09T07:15:36.339Z,8.90
2018-05-09T07:18:04.461Z,12.97
2018-05-09T07:20:32.590Z,9.17
2018-05-09T07:23:00.692Z,6.10
2018-05-09T07:25:28.832Z,7.33
2018-05-09T07:27:56.949Z,8.60
2018-05-09T07:30:25.066Z,11.53
2018-05-09T07:32:53.189Z,7.47
2018-05-09T07:35:21.330Z,7.63
2018-05-09T07:37:49.433Z,9.03
2018-05-09T07:40:17.576Z,4.97
2018-05-09T07:42:45.680Z,5.53
2018-05-09T07:45:13.778Z,8.60
2018-05-09T07:47:42.008Z,12.70
2018-05-09T07:50:10.038Z,5.60
2018-05-09T07:52:38.157Z,6.80
2018-05-09T07:55:06.278Z,7.37
2018-05-09T07:57:34.807Z,8.43
2018-05-09T08:00:02.960Z,6.50
2018-05-09T08:02:31.144Z,6.33
2018-05-09T08:04:59.261Z,6.60
2018-05-09T08:07:27.381Z,8.83
2018-05-09T08:09:55.495Z,8.50
2018-05-09T08:12:23.625Z,8.70
2018-05-09T08:14:51.741Z,5.97
2018-05-09T08:17:19.850Z,9.30
2018-05-09T08:19:47.984Z,6.67
2018-05-09T08:22:16.116Z,5.90
2018-05-09T08:24:44.222Z,8.27
2018-05-09T08:27:12.390Z,5.37
2018-05-09T08:29:40.521Z,5.37
2018-05-09T08:32:08.637Z,7.20
2018-05-09T08:34:36.760Z,10.40
2018-05-09T08:37:04.896Z,9.17
2018-05-09T08:39:33.009Z,7.50
2018-05-09T08:42:01.124Z,6.20
2018-05-09T08:44:29.223Z,6.10
2018-05-09T08:46:57.356Z,8.30
2018-05-09T08:49:25.539Z,11.53
2018-05-09T08:51:53.615Z,9.73
2018-05-09T08:54:21.738Z,9.57
2018-05-09T08:56:49.868Z,6.87
2018-05-09T08:59:18.116Z,9.87
2018-05-09T09:01:46.242Z,5.97
2018-05-09T09:04:14.375Z,7.13
2018-05-09T09:06:42.486Z,8.30
2018-05-09T09:09:10.593Z,8.83
2018-05-09T09:11:38.713Z,5.67
2018-05-09T09:14:06.833Z,8.37
2018-05-09T09:16:34.957Z,7.27
2018-05-09T09:19:03.071Z,6.60
2018-05-09T09:21:31.194Z,6.47
2018-05-09T09:23:59.308Z,8.60
2018-05-09T09:26:27.437Z,12.23
2018-05-09T09:28:55.561Z,7.77
2018-05-09T09:31:23.668Z,7.70
2018-05-09T09:33:51.789Z,8.33
2018-05-09T09:36:19.939Z,5.73
2018-05-09T09:38:48.043Z,6.83
2018-05-09T09:41:16.150Z,6.70
2018-05-09T09:43:44.364Z,8.03
2018-05-09T09:46:12.563Z,4.60
2018-05-09T09:48:40.744Z,4.77
2018-05-09T09:51:08.909Z,9.27
2018-05-09T09:53:37.092Z,7.03
2018-05-09T09:56:05.710Z,8.03
2018-05-09T09:58:33.876Z,5.33
2018-05-09T10:01:02.037Z,10.30
2018-05-09T10:03:30.218Z,8.90
2018-05-09T10:05:58.325Z,9.10
2018-05-09T10:08:26.457Z,7.47
2018-05-09T10:10:54.593Z,10.60
2018-05-09T10:13:22.729Z,6.10
2018-05-09T10:15:50.831Z,10.13
2018-05-09T10:18:18.975Z,8.80
2018-05-09T10:20:47.070Z,8.27
2018-05-09T10:23:15.186Z,8.20
2018-05-09T10:25:43.319Z,9.63
2018-05-09T10:28:11.445Z,7.30
2018-05-09T10:30:39.565Z,8.57
2018-05-09T10:33:07.682Z,6.37
2018-05-09T10:35:35.801Z,8.90
2018-05-09T10:38:03.945Z,7.03
2018-05-09T10:40:32.065Z,6.37
2018-05-09T10:43:00.182Z,8.17
2018-05-09T10:45:28.309Z,10.10
2018-05-09T10:47:56.406Z,8.90
2018-05-09T10:50:24.538Z,5.40
2018-05-09T10:52:52.650Z,22.53
2018-05-09T10:55:20.782Z,6.27
2018-05-09T10:57:48.922Z,8.60
2018-05-09T11:00:17.042Z,10.17
2018-05-09T11:02:45.149Z,5.97
2018-05-09T11:05:13.370Z,7.57
2018-05-09T11:07:41.935Z,8.93
2018-05-09T11:10:13.242Z,7.40
2018-05-09T11:12:41.450Z,7.90
2018-05-09T11:15:09.565Z,6.50
2018-05-09T11:17:37.781Z,6.10
2018-05-09T11:20:05.824Z,7.37
2018-05-09T11:22:33.928Z,7.17
2018-05-09T11:25:02.045Z,8.53
2018-05-09T11:27:30.154Z,5.90
2018-05-09T11:29:58.308Z,7.47
2018-05-09T11:32:26.429Z,7.63
2018-05-09T11:34:54.526Z,9.73
2018-05-09T11:37:22.722Z,9.90
2018-05-09T11:39:50.750Z,8.03
2018-05-09T11:42:18.885Z,8.40
2018-05-09T11:44:47.062Z,7.67
2018-05-09T11:47:15.136Z,4.87
2018-05-09T11:49:43.249Z,6.67
2018-05-09T11:52:11.387Z,4.57
2018-05-09T11:54:39.518Z,6.47
2018-05-09T11:57:07.643Z,6.10
2018-05-09T11:59:35.762Z,7.13
2018-05-09T12:02:03.916Z,7.73
2018-05-09T12:04:32.043Z,6.00
2018-05-09T12:07:00.172Z,8.63
2018-05-09T12:09:28.298Z,11.03
2018-05-09T12:11:56.417Z,6.53
2018-05-09T12:14:24.527Z,7.07
2018-05-09T12:16:52.654Z,7.07
2018-05-09T12:19:20.864Z,7.93
2018-05-09T12:21:48.985Z,7.80
2018-05-09T12:24:20.236Z,8.33
2018-05-09T12:26:48.345Z,10.87
2018-05-09T12:29:16.473Z,8.07
2018-05-09T12:31:44.604Z,7.63
2018-05-09T12:34:12.729Z,5.63
2018-05-09T12:36:40.849Z,8.03
2018-05-09T12:39:08.987Z,7.30
2018-05-09T12:41:37.098Z,6.20
2018-05-09T12:44:05.328Z,8.67
2018-05-09T12:46:33.594Z,6.77
2018-05-09T12:49:01.735Z,7.17
2018-05-09T12:51:29.844Z,9.37
2018-05-09T12:53:57.977Z,5.83
2018-05-09T12:56:26.116Z,6.47
2018-05-09T12:58:54.228Z,5.50
2018-05-09T13:01:22.351Z,6.17
2018-05-09T13:03:50.455Z,5.90
2018-05-09T13:06:18.577Z,11.33
2018-05-09T13:08:46.704Z,10.23
2018-05-09T13:11:14.812Z,10.50
2018-05-09T13:13:46.504Z,8.83
2018-05-09T13:16:14.623Z,8.37
2018-05-09T13:18:42.758Z,4.53
2018-05-09T13:21:10.886Z,7.63
2018-05-09T13:23:38.986Z,6.47
2018-05-09T13:26:07.117Z,7.27
2018-05-09T13:28:35.233Z,8.87
2018-05-09T13:31:03.356Z,7.70
2018-05-09T13:33:31.493Z,9.80
2018-05-09T13:35:59.609Z,7.00
2018-05-09T13:38:27.708Z,8.43
2018-05-09T13:40:55.815Z,4.97
2018-05-09T13:43:24.830Z,7.43
2018-05-09T13:45:52.954Z,4.90
2018-05-09T13:48:21.050Z,5.80
2018-05-09T13:50:49.173Z,7.00
2018-05-09T13:53:17.296Z,8.23
2018-05-09T13:55:45.426Z,6.47
2018-05-09T13:58:13.538Z,7.87
2018-05-09T14:00:41.660Z,6.33
2018-05-09T14:03:09.798Z,7.50
2018-05-09T14:05:37.928Z,8.83
2018-05-09T14:08:06.055Z,7.00
2018-05-09T14:10:34.173Z,6.60
2018-05-09T14:13:02.319Z,5.57
2018-05-09T14:15:30.482Z,8.67
2018-05-09T14:17:58.569Z,8.60
2018-05-09T14:20:26.704Z,5.07
2018-05-09T14:22:54.833Z,10.33
2018-05-09T14:25:22.956Z,5.73
2018-05-09T14:27:51.062Z,6.67
2018-05-09T14:30:19.166Z,5.43
2018-05-09T14:32:47.311Z,6.03
2018-05-09T14:35:15.501Z,9.13
2018-05-09T14:37:43.591Z,8.07
2018-05-09T14:40:11.713Z,7.00
2018-05-09T14:42:39.815Z,8.30
2018-05-09T14:45:07.934Z,8.47
2018-05-09T14:47:36.073Z,5.67
2018-05-09T14:50:04.186Z,5.93
2018-05-09T14:52:32.316Z,5.43
2018-05-09T14:55:00.427Z,6.57
2018-05-09T14:57:28.560Z,6.70
2018-05-09T14:59:57.091Z,7.07
2018-05-09T15:02:25.244Z,6.07
2018-05-09T15:04:53.383Z,5.50
2018-05-09T15:07:21.589Z,6.67
2018-05-09T15:09:49.731Z,4.93
2018-05-09T15:12:17.844Z,5.97
2018-05-09T15:14:45.969Z,6.50
2018-05-09T15:17:14.085Z,9.87
2018-05-09T15:19:43.137Z,9.97
2018-05-09T15:22:11.136Z,11.27
2018-05-09T15:24:39.246Z,6.17
2018-05-09T15:27:07.379Z,9.90
2018-05-09T15:29:35.509Z,7.70
2018-05-09T15:32:03.625Z,9.20
2018-05-09T15:34:31.730Z,8.57
2018-05-09T15:37:00.081Z,7.57
2018-05-09T15:39:28.208Z,9.17
2018-05-09T15:41:56.352Z,10.43
2018-05-09T15:44:24.475Z,6.87
2018-05-09T15:46:52.575Z,7.97
2018-05-09T15:49:20.866Z,15.40
2018-05-09T15:51:49.219Z,8.47
2018-05-09T15:54:17.327Z,10.50
2018-05-09T15:56:45.475Z,10.23
2018-05-09T15:59:13.676Z,8.57
2018-05-09T16:01:41.801Z,10.20
2018-05-09T16:04:09.926Z,6.40
2018-05-09T16:06:38.075Z,8.77
2018-05-09T16:09:06.192Z,7.80
2018-05-09T16:11:34.321Z,5.10
2018-05-09T16:14:02.453Z,6.90
2018-05-09T16:16:30.559Z,6.63
2018-05-09T16:18:58.681Z,6.77
2018-05-09T16:21:26.836Z,7.13
2018-05-09T16:23:54.976Z,10.27
2018-05-09T16:26:23.084Z,10.13
2018-05-09T16:28:51.218Z,6.80
2018-05-09T16:31:19.446Z,7.13
2018-05-09T16:33:47.597Z,8.80
2018-05-09T16:36:15.856Z,8.90
2018-05-09T16:38:43.892Z,5.67
2018-05-09T16:41:12.018Z,6.20
2018-05-09T16:43:40.319Z,6.80
2018-05-09T16:46:08.418Z,5.87
2018-05-09T16:48:36.556Z,5.87
2018-05-09T16:51:04.685Z,7.07
2018-05-09T16:53:32.796Z,6.90
2018-05-09T16:56:00.912Z,6.50
2018-05-09T16:58:29.232Z,7.97
2018-05-09T17:00:57.363Z,11.17
2018-05-09T17:03:25.466Z,5.70
2018-05-09T17:05:53.589Z,5.73
2018-05-09T17:08:21.695Z,4.43
2018-05-09T17:10:49.827Z,4.73
2018-05-09T17:13:18.161Z,4.60
2018-05-09T17:15:46.278Z,4.97
2018-05-09T17:18:14.392Z,6.33
2018-05-09T17:20:42.535Z,5.17
2018-05-09T17:23:10.627Z,5.43
2018-05-09T17:25:38.764Z,8.33
2018-05-09T17:28:06.889Z,4.77
2018-05-09T17:30:35.021Z,6.37
2018-05-09T17:33:03.121Z,4.63
2018-05-09T17:35:31.268Z,4.83
2018-05-09T17:37:59.376Z,5.40
2018-05-09T17:40:27.490Z,5.53
2018-05-09T17:42:55.615Z,5.80
2018-05-09T17:45:23.719Z,6.70
2018-05-09T17:47:51.826Z,7.20
2018-05-09T17:50:19.957Z,6.00
2018-05-09T17:52:48.088Z,8.20
2018-05-09T17:55:16.190Z,7.73
2018-05-09T17:57:44.335Z,6.97
2018-05-09T18:00:12.463Z,6.00
2018-05-09T18:02:40.590Z,8.73
2018-05-09T18:05:08.726Z,9.17
2018-05-09T18:07:36.831Z,7.47
2018-05-09T18:10:04.945Z,7.10
2018-05-09T18:12:33.096Z,6.27
2018-05-09T18:15:01.256Z,7.90
2018-05-09T18:17:29.365Z,8.13
2018-05-09T18:19:59.643Z,7.90
2018-05-09T18:22:27.824Z,6.93
2018-05-09T18:24:55.967Z,7.40
2018-05-09T18:27:24.088Z,8.40
2018-05-09T18:29:52.204Z,8.73
2018-05-09T18:32:20.306Z,6.67
2018-05-09T18:34:48.445Z,9.60
2018-05-09T18:37:16.575Z,8.20
2018-05-09T18:39:44.711Z,11.13
2018-05-09T18:42:12.816Z,8.30
2018-05-09T18:44:40.926Z,11.07
2018-05-09T18:47:09.045Z,9.53
2018-05-09T18:49:37.425Z,10.00
2018-05-09T18:52:08.465Z,9.50
2018-05-09T18:54:36.978Z,10.23
2018-05-09T18:57:05.122Z,11.83
2018-05-09T18:59:33.245Z,15.47
2018-05-09T19:02:01.373Z,7.93
2018-05-09T19:04:29.487Z,12.20
2018-05-09T19:07:00.873Z,9.67
2018-05-09T19:09:29.006Z,15.83
2018-05-09T19:11:57.512Z,14.83
2018-05-09T19:14:25.710Z,12.33
2018-05-09T19:16:53.835Z,8.83
2018-05-09T19:19:21.970Z,9.70
2018-05-09T19:21:50.171Z,11.03
2018-05-09T19:24:18.350Z,10.10
2018-05-09T19:26:46.555Z,7.97
2018-05-09T19:29:14.837Z,10.47
2018-05-09T19:31:42.995Z,11.50
2018-05-09T19:34:14.548Z,23.13
2018-05-09T19:36:42.686Z,25.30
2018-05-09T19:39:10.821Z,15.90
2018-05-09T19:41:39.173Z,11.93
2018-05-09T19:44:07.091Z,12.57
2018-05-09T19:46:35.215Z,8.83
2018-05-09T19:49:04.121Z,13.73
2018-05-09T19:51:32.264Z,16.63
2018-05-09T19:54:00.380Z,14.27
2018-05-09T19:56:28.531Z,15.73
2018-05-09T19:58:56.709Z,18.73
2018-05-09T20:01:24.855Z,12.87
2018-05-09T20:03:52.974Z,13.00
2018-05-09T20:06:21.097Z,15.47
2018-05-09T20:08:49.228Z,18.97
2018-05-09T20:11:17.380Z,23.10
2018-05-09T20:13:45.528Z,23.80
2018-05-09T20:16:14.888Z,18.00
2018-05-09T20:18:43.022Z,12.70
2018-05-09T20:21:11.433Z,21.37
2018-05-09T20:23:40.855Z,15.53
2018-05-09T20:26:09.060Z,20.27
2018-05-09T20:28:46.194Z,20.20
2018-05-09T20:31:32.139Z,23.50
2018-05-09T20:34:00.256Z,24.07
2018-05-09T20:36:28.417Z,25.70
2018-05-09T20:38:57.901Z,26.87
2018-05-09T20:41:26.081Z,29.83
2018-05-09T20:43:54.186Z,33.83
2018-05-09T20:46:22.330Z,32.03
2018-05-09T20:48:50.474Z,28.23
2018-05-09T20:51:34.054Z,24.60
2018-05-09T20:54:02.209Z,25.90
2018-05-09T20:56:30.350Z,27.77
2018-05-09T20:58:58.543Z,32.43
2018-05-09T21:01:38.395Z,26.17
2018-05-09T21:04:06.518Z,23.23
2018-05-09T21:06:34.635Z,26.23
2018-05-09T21:09:02.847Z,23.93
2018-05-09T21:11:31.165Z,22.70
2018-05-09T21:13:59.297Z,21.47
2018-05-09T21:16:27.422Z,20.17
2018-05-09T21:18:56.469Z,27.67
2018-05-09T21:21:28.183Z,42.47
2018-05-09T21:23:56.334Z,38.47
2018-05-09T21:26:24.481Z,39.60
2018-05-09T21:28:52.895Z,41.73
2018-05-09T21:31:22.035Z,45.67
2018-05-09T21:33:50.421Z,41.10
2018-05-09T21:36:18.607Z,44.03
2018-05-09T21:38:46.727Z,45.67
2018-05-09T21:41:14.883Z,45.40
2018-05-09T21:43:43.134Z,45.50
2018-05-09T21:46:11.316Z,48.80
2018-05-09T21:48:39.532Z,46.00
2018-05-09T21:51:07.657Z,41.53
2018-05-09T21:53:35.785Z,45.70
2018-05-09T21:56:04.085Z,50.73
2018-05-09T21:58:32.115Z,43.77
2018-05-09T22:01:00.237Z,45.20
2018-05-09T22:03:28.463Z,44.73
2018-05-09T22:05:56.593Z,41.57
2018-05-09T22:08:24.721Z,45.77
2018-05-09T22:10:53.049Z,43.83
2018-05-09T22:13:21.011Z,46.37
2018-05-09T22:15:49.137Z,47.93
2018-05-09T22:18:17.295Z,48.47
2018-05-09T22:20:45.426Z,45.20
2018-05-09T22:23:13.572Z,50.20
2018-05-09T22:25:41.907Z,46.83
2018-05-09T22:28:10.060Z,51.03
2018-05-09T22:30:38.177Z,50.70
2018-05-09T22:33:06.321Z,45.40
2018-05-09T22:35:34.461Z,44.40
2018-05-09T22:38:02.591Z,45.23
2018-05-09T22:40:30.755Z,44.40
2018-05-09T22:42:58.859Z,40.33
2018-05-09T22:45:27.001Z,41.37
2018-05-09T22:47:55.193Z,49.03
2018-05-09T22:50:23.418Z,41.40
2018-05-09T22:52:51.528Z,40.47
2018-05-09T22:55:19.669Z,43.60
2018-05-09T22:57:47.809Z,38.23
2018-05-09T23:00:15.925Z,40.07
2018-05-09T23:02:44.051Z,41.73
2018-05-09T23:05:12.167Z,48.53
2018-05-09T23:07:40.285Z,45.53
2018-05-09T23:10:08.451Z,47.37
2018-05-09T23:12:36.542Z,47.23
2018-05-09T23:15:04.654Z,47.30
2018-05-09T23:17:32.818Z,47.30
2018-05-09T23:20:00.906Z,50.37
2018-05-09T23:22:29.019Z,48.10
2018-05-09T23:24:57.378Z,54.00
2018-05-09T23:27:25.521Z,50.63
2018-05-09T23:29:53.659Z,55.13
2018-05-09T23:32:21.978Z,54.37
2018-05-09T23:34:50.083Z,46.93
2018-05-09T23:37:18.209Z,51.10
2018-05-09T23:39:46.363Z,52.50
2018-05-09T23:42:14.471Z,52.80
2018-05-09T23:44:42.601Z,57.17
2018-05-09T23:47:10.740Z,54.80
2018-05-09T23:49:38.889Z,56.83
2018-05-09T23:52:07.076Z,55.83
2018-05-09T23:54:35.145Z,56.90
2018-05-09T23:57:03.272Z,54.17
2018-05-09T23:59:31.383Z,56.87
